Time;durP1;ratioP1;P1;durP2;ratioP2;P2;SDS_P1;SDS_P2;PMS_P1;PMS_P2;Temp;Humidity;BMP_temperature;BMP_pressure;BME280_temperature;BME280_humidity;BME280_pressure;Samples;Min_cycle;Max_cycle;Signal;HPM_P1;HPM_P2
2022/05/19 00:03:26;;;;;;;10.52;5.10;;;;;;;;;;8464321;28;20043;-82
2022/05/19 00:07:29;;;;;;;8.40;4.45;;;;;;;;;;8457548;28;20048;-83
2022/05/19 00:11:33;;;;;;;13.57;4.63;;;;;;;;;;8462682;28;20111;-83
2022/05/19 00:15:36;;;;;;;10.98;4.80;;;;;;;;;;8454396;28;20403;-83
2022/05/19 00:19:42;;;;;;;10.05;4.65;;;;;;;;;;8452196;28;20079;-82
2022/05/19 00:23:45;;;;;;;9.57;4.57;;;;;;;;;;8458339;28;20055;-82
2022/05/19 00:27:49;;;;;;;10.35;4.15;;;;;;;;;;8461691;28;20117;-83
2022/05/19 00:31:52;;;;;;;10.05;4.22;;;;;;;;;;8453150;28;20506;-82
2022/05/19 00:35:55;;;;;;;10.25;4.50;;;;;;;;;;8453245;28;20047;-83
2022/05/19 00:39:58;;;;;;;9.13;4.57;;;;;;;;;;8456175;28;20105;-82
2022/05/19 00:44:04;;;;;;;9.18;4.68;;;;;;;;;;8459327;28;20036;-82
2022/05/19 00:48:14;;;;;;;11.18;4.70;;;;;;;;;;8453338;28;20059;-82
2022/05/19 00:52:24;;;;;;;13.73;4.63;;;;;;;;;;8461027;28;20597;-82
2022/05/19 00:56:31;;;;;;;11.10;4.78;;;;;;;;;;8462119;28;20066;-81
2022/05/19 01:00:35;;;;;;;10.55;4.93;;;;;;;;;;8460391;28;20044;-82
2022/05/19 01:04:41;;;;;;;11.43;5.57;;;;;;;;;;8463031;28;20043;-81
2022/05/19 01:08:48;;;;;;;10.65;4.53;;;;;;;;;;8463423;28;20058;-81
2022/05/19 01:12:53;;;;;;;11.00;4.55;;;;;;;;;;8463600;28;20043;-81
2022/05/19 01:16:57;;;;;;;10.50;4.70;;;;;;;;;;8463092;28;20552;-82
2022/05/19 01:21:00;;;;;;;11.30;4.72;;;;;;;;;;8462229;28;20055;-84
2022/05/19 01:25:11;;;;;;;12.20;4.82;;;;;;;;;;8469299;28;20471;-82
2022/05/19 01:29:16;;;;;;;10.00;4.25;;;;;;;;;;8462519;28;20043;-81
2022/05/19 01:33:19;;;;;;;10.73;4.72;;;;;;;;;;8462268;28;20043;-82
2022/05/19 01:37:22;;;;;;;10.50;4.22;;;;;;;;;;8461600;28;20043;-82
2022/05/19 01:41:31;;;;;;;8.93;4.13;;;;;;;;;;8468255;28;20047;-82
2022/05/19 01:45:48;;;;;;;11.63;4.47;;;;;;;;;;8461485;28;20052;-82
2022/05/19 01:49:57;;;;;;;9.88;4.20;;;;;;;;;;8463023;28;20122;-81
2022/05/19 01:54:07;;;;;;;11.60;4.68;;;;;;;;;;8467887;28;20058;-82
2022/05/19 01:58:17;;;;;;;7.03;3.60;;;;;;;;;;8467542;28;20055;-81
2022/05/19 02:02:27;;;;;;;9.18;4.10;;;;;;;;;;8467463;28;20047;-81
2022/05/19 02:06:35;;;;;;;7.85;3.92;;;;;;;;;;8467047;28;20131;-82
2022/05/19 02:10:42;;;;;;;8.50;4.15;;;;;;;;;;8467326;28;20065;-82
2022/05/19 02:14:50;;;;;;;9.82;4.40;;;;;;;;;;8467019;28;20044;-82
2022/05/19 02:18:54;;;;;;;8.55;4.30;;;;;;;;;;8467455;28;20040;-82
2022/05/19 02:22:58;;;;;;;8.55;3.88;;;;;;;;;;8461647;28;20052;-82
2022/05/19 02:27:23;;;;;;;9.55;4.03;;;;;;;;;;8466671;28;20043;-82
2022/05/19 02:31:26;;;;;;;7.43;3.72;;;;;;;;;;8467101;28;20044;-82
2022/05/19 02:35:31;;;;;;;9.10;3.95;;;;;;;;;;8466278;28;20048;-81
2022/05/19 02:39:33;;;;;;;9.23;4.28;;;;;;;;;;8466273;28;20051;-82
2022/05/19 02:43:36;;;;;;;7.55;4.25;;;;;;;;;;8466085;28;20055;-82
2022/05/19 02:47:38;;;;;;;11.07;4.50;;;;;;;;;;8465978;28;20051;-81
2022/05/19 02:51:43;;;;;;;5.95;3.30;;;;;;;;;;8466004;28;20039;-82
2022/05/19 02:55:46;;;;;;;6.53;3.80;;;;;;;;;;8465723;28;20059;-81
2022/05/19 02:59:49;;;;;;;9.00;3.90;;;;;;;;;;8465646;28;20047;-81
2022/05/19 03:03:51;;;;;;;6.88;3.30;;;;;;;;;;8465488;28;20039;-82
2022/05/19 03:07:56;;;;;;;7.68;3.65;;;;;;;;;;8465492;28;20259;-82
2022/05/19 03:11:58;;;;;;;10.32;3.90;;;;;;;;;;8465419;28;20109;-82
2022/05/19 03:16:01;;;;;;;7.47;3.03;;;;;;;;;;8464553;28;20047;-81
2022/05/19 03:20:06;;;;;;;7.47;3.47;;;;;;;;;;8465425;28;20084;-81
2022/05/19 03:24:10;;;;;;;6.65;3.75;;;;;;;;;;8464697;28;20067;-81
2022/05/19 03:28:14;;;;;;;6.70;3.22;;;;;;;;;;8465216;28;20097;-81
2022/05/19 03:32:17;;;;;;;6.75;3.25;;;;;;;;;;8465130;28;20040;-83
2022/05/19 03:36:20;;;;;;;11.23;3.70;;;;;;;;;;8464495;28;20051;-82
2022/05/19 03:40:25;;;;;;;8.18;3.15;;;;;;;;;;8464832;28;20450;-82
2022/05/19 03:44:27;;;;;;;6.03;3.20;;;;;;;;;;8464433;28;20048;-82
2022/05/19 03:48:33;;;;;;;9.45;3.45;;;;;;;;;;8464233;28;20047;-81
2022/05/19 03:52:38;;;;;;;5.72;2.72;;;;;;;;;;8457937;28;20054;-81
2022/05/19 03:56:42;;;;;;;6.78;3.53;;;;;;;;;;8457663;28;20055;-81
2022/05/19 04:00:45;;;;;;;8.10;3.17;;;;;;;;;;8457797;28;20380;-82
2022/05/19 04:04:47;;;;;;;4.82;2.80;;;;;;;;;;8463711;28;20065;-81
2022/05/19 04:08:50;;;;;;;6.90;2.90;;;;;;;;;;8463596;28;20044;-82
2022/05/19 04:12:54;;;;;;;8.43;3.50;;;;;;;;;;8464060;28;20475;-82
2022/05/19 04:16:56;;;;;;;6.38;2.85;;;;;;;;;;8463528;28;20067;-82
2022/05/19 04:20:59;;;;;;;5.75;3.15;;;;;;;;;;8463997;28;20428;-82
2022/05/19 04:25:02;;;;;;;3.97;2.60;;;;;;;;;;8396801;28;20044;-81
2022/05/19 04:29:06;;;;;;;5.72;2.80;;;;;;;;;;8399689;28;20094;-81
2022/05/19 04:33:10;;;;;;;11.25;3.88;;;;;;;;;;8403036;28;20044;-81
2022/05/19 04:37:13;;;;;;;7.20;3.55;;;;;;;;;;8402989;28;20087;-82
2022/05/19 04:41:15;;;;;;;12.00;4.97;;;;;;;;;;8402751;28;20052;-82
2022/05/19 04:45:19;;;;;;;14.00;4.20;;;;;;;;;;8402696;28;20044;-81
2022/05/19 04:49:22;;;;;;;9.90;4.22;;;;;;;;;;8402647;28;20098;-81
2022/05/19 04:53:25;;;;;;;7.07;3.38;;;;;;;;;;8402494;28;20056;-82
2022/05/19 04:57:27;;;;;;;5.97;2.60;;;;;;;;;;8395402;28;20052;-82
2022/05/19 05:01:32;;;;;;;18.80;6.38;;;;;;;;;;8376988;28;20052;-85
2022/05/19 05:05:35;;;;;;;9.02;3.88;;;;;;;;;;8402290;28;20049;-82
2022/05/19 05:09:40;;;;;;;20.95;6.65;;;;;;;;;;8394295;28;20533;-84
2022/05/19 05:13:47;;;;;;;18.98;6.22;;;;;;;;;;8397721;28;20134;-83
2022/05/19 05:17:55;;;;;;;14.48;6.72;;;;;;;;;;8389434;28;20480;-84
2022/05/19 05:22:01;;;;;;;12.23;5.72;;;;;;;;;;8407451;28;20055;-84
2022/05/19 05:26:06;;;;;;;11.30;5.50;;;;;;;;;;8468232;28;20419;-84
2022/05/19 05:30:11;;;;;;;17.75;9.18;;;;;;;;;;8468686;28;20475;-86
2022/05/19 05:34:15;;;;;;;14.77;8.18;;;;;;;;;;8467528;28;20054;-84
2022/05/19 05:38:20;;;;;;;4.63;2.28;;;;;;;;;;8459833;28;20502;-85
2022/05/19 05:42:23;;;;;;;4.13;2.00;;;;;;;;;;8461716;28;20054;-85
2022/05/19 05:46:26;;;;;;;4.40;1.95;;;;;;;;;;8468337;28;20047;-85
2022/05/19 05:50:30;;;;;;;2.90;1.77;;;;;;;;;;8461087;28;20044;-83
2022/05/19 05:54:33;;;;;;;5.88;2.05;;;;;;;;;;8467505;28;20044;-83
2022/05/19 05:58:36;;;;;;;3.63;2.00;;;;;;;;;;8467217;28;20458;-83
2022/05/19 06:02:38;;;;;;;4.38;1.90;;;;;;;;;;8467568;28;20111;-83
2022/05/19 06:06:45;;;;;;;6.65;2.20;;;;;;;;;;8468039;28;20479;-82
2022/05/19 06:10:48;;;;;;;3.95;2.10;;;;;;;;;;8467372;28;20452;-83
2022/05/19 06:14:53;;;;;;;6.03;2.13;;;;;;;;;;8467630;28;20070;-86
2022/05/19 06:18:55;;;;;;;3.95;1.88;;;;;;;;;;8465139;28;20559;-83
2022/05/19 06:23:00;;;;;;;5.05;1.80;;;;;;;;;;8442450;28;20055;-82
2022/05/19 06:27:02;;;;;;;3.83;1.65;;;;;;;;;;8467172;28;20044;-82
2022/05/19 06:31:05;;;;;;;2.70;1.70;;;;;;;;;;8463108;28;20054;-82
2022/05/19 06:35:11;;;;;;;6.32;1.90;;;;;;;;;;8463966;28;20051;-83
2022/05/19 06:39:16;;;;;;;3.30;1.60;;;;;;;;;;8465916;28;20047;-82
2022/05/19 06:43:24;;;;;;;4.97;1.80;;;;;;;;;;8466654;28;20047;-83
2022/05/19 06:47:28;;;;;;;5.40;1.67;;;;;;;;;;8466186;28;20039;-85
2022/05/19 06:51:30;;;;;;;8.48;1.80;;;;;;;;;;8464944;28;20487;-82
2022/05/19 06:55:38;;;;;;;3.38;1.58;;;;;;;;;;8466219;28;20096;-82
2022/05/19 06:59:41;;;;;;;2.97;1.60;;;;;;;;;;8464868;28;20079;-85
2022/05/19 07:03:45;;;;;;;3.70;1.40;;;;;;;;;;8465800;28;20055;-86
2022/05/19 07:07:47;;;;;;;3.72;1.45;;;;;;;;;;8465501;28;20414;-87
2022/05/19 07:11:53;;;;;;;1.58;1.30;;;;;;;;;;8459010;28;20482;-83
2022/05/19 07:15:55;;;;;;;2.47;1.40;;;;;;;;;;8458632;28;20522;-83
2022/05/19 07:24:27;;;;;;;2.22;1.38;;;;;;;;;;8410350;28;20051;-83
2022/05/19 07:28:31;;;;;;;2.20;1.15;;;;;;;;;;8465233;28;20513;-82
2022/05/19 07:32:34;;;;;;;1.88;1.45;;;;;;;;;;8465120;28;20429;-82
2022/05/19 07:36:37;;;;;;;3.22;1.70;;;;;;;;;;8463885;28;20056;-83
2022/05/19 07:40:39;;;;;;;5.88;1.50;;;;;;;;;;8463894;28;20065;-84
2022/05/19 07:44:44;;;;;;;3.58;1.50;;;;;;;;;;8457835;28;20410;-83
2022/05/19 07:48:47;;;;;;;6.90;1.80;;;;;;;;;;8463257;28;20051;-86
2022/05/19 07:52:50;;;;;;;4.90;1.60;;;;;;;;;;8464151;28;20067;-84
2022/05/19 07:56:52;;;;;;;3.55;1.63;;;;;;;;;;8463230;28;20047;-84
2022/05/19 08:00:56;;;;;;;2.55;1.35;;;;;;;;;;8462730;28;20044;-84
2022/05/19 08:04:59;;;;;;;3.33;1.63;;;;;;;;;;8462305;28;20043;-84
2022/05/19 08:10:20;;;;;;;4.53;1.70;;;;;;;;;;8463163;28;20073;-84
2022/05/19 08:17:47;;;;;;;3.83;1.63;;;;;;;;;;8464339;28;20050;-83
2022/05/19 08:21:50;;;;;;;2.38;1.60;;;;;;;;;;8463468;28;20403;-83
2022/05/19 08:25:55;;;;;;;3.80;1.60;;;;;;;;;;8463606;28;20047;-84
2022/05/19 08:29:58;;;;;;;4.35;1.73;;;;;;;;;;8463520;28;20047;-84
2022/05/19 08:34:03;;;;;;;2.72;1.65;;;;;;;;;;8463550;28;20044;-85
2022/05/19 08:38:06;;;;;;;4.97;1.80;;;;;;;;;;8457452;28;20134;-83
2022/05/19 08:42:12;;;;;;;5.35;1.80;;;;;;;;;;8457106;28;20044;-84
2022/05/19 08:46:20;;;;;;;3.47;1.35;;;;;;;;;;8463279;28;20040;-84
2022/05/19 08:50:33;;;;;;;9.93;3.08;;;;;;;;;;8456620;28;20040;-84
2022/05/19 08:54:39;;;;;;;7.20;2.10;;;;;;;;;;8458095;28;20131;-85
2022/05/19 08:58:53;;;;;;;5.72;1.80;;;;;;;;;;8451534;28;20208;-85
2022/05/19 09:03:08;;;;;;;8.25;1.50;;;;;;;;;;8458188;28;20104;-85
2022/05/19 09:11:47;;;;;;;2.60;1.45;;;;;;;;;;8461625;28;20135;-84
2022/05/19 09:15:50;;;;;;;5.55;1.70;;;;;;;;;;8459079;28;20043;-83
2022/05/19 09:19:55;;;;;;;3.35;1.48;;;;;;;;;;8469641;28;20130;-85
2022/05/19 09:24:00;;;;;;;2.55;1.40;;;;;;;;;;8465890;28;20064;-85
2022/05/19 09:28:02;;;;;;;5.50;1.67;;;;;;;;;;8468980;28;20039;-84
2022/05/19 09:32:12;;;;;;;3.80;1.85;;;;;;;;;;8464573;28;20051;-87
2022/05/19 09:36:16;;;;;;;4.10;1.90;;;;;;;;;;8464804;28;20506;-84
2022/05/19 09:40:26;;;;;;;3.60;1.70;;;;;;;;;;8464308;28;20062;-86
2022/05/19 09:44:32;;;;;;;3.90;1.80;;;;;;;;;;8461936;28;20116;-84
2022/05/19 09:48:41;;;;;;;3.83;2.22;;;;;;;;;;8464055;28;20066;-84
2022/05/19 09:52:45;;;;;;;3.42;1.80;;;;;;;;;;8464100;28;20096;-86
2022/05/19 09:56:51;;;;;;;5.63;2.33;;;;;;;;;;8463313;28;20051;-85
2022/05/19 10:01:08;;;;;;;5.00;1.85;;;;;;;;;;8463536;28;20130;-85
2022/05/19 10:05:27;;;;;;;6.93;2.35;;;;;;;;;;8454277;28;20050;-85
2022/05/19 10:09:33;;;;;;;5.47;2.20;;;;;;;;;;8462263;28;20060;-90
2022/05/19 10:13:45;;;;;;;3.20;1.70;;;;;;;;;;8463958;28;20471;-83
2022/05/19 10:18:00;;;;;;;2.90;1.83;;;;;;;;;;8466724;28;20054;-84
2022/05/19 10:22:28;;;;;;;8.68;1.90;;;;;;;;;;8466069;28;20093;-83
2022/05/19 10:26:43;;;;;;;4.07;1.90;;;;;;;;;;8460089;28;20055;-82
2022/05/19 10:31:04;;;;;;;4.38;2.35;;;;;;;;;;8453581;28;20039;-82
2022/05/19 10:35:15;;;;;;;3.60;2.13;;;;;;;;;;8466663;28;20047;-82
2022/05/19 10:39:37;;;;;;;5.13;1.98;;;;;;;;;;8466921;28;20475;-83
2022/05/19 10:43:54;;;;;;;8.07;2.55;;;;;;;;;;8466530;28;20040;-82
2022/05/19 10:48:28;;;;;;;6.43;3.83;;;;;;;;;;8460722;28;20046;-82
2022/05/19 10:52:50;;;;;;;5.78;2.00;;;;;;;;;;8466114;28;20047;-83
2022/05/19 10:57:14;;;;;;;10.27;2.08;;;;;;;;;;8465900;28;20048;-83
2022/05/19 11:01:29;;;;;;;3.45;2.00;;;;;;;;;;8465715;28;20040;-83
2022/05/19 11:05:47;;;;;;;3.28;1.77;;;;;;;;;;8465670;28;20047;-82
2022/05/19 11:10:00;;;;;;;5.40;2.10;;;;;;;;;;8464041;28;20089;-91
2022/05/19 11:14:16;;;;;;;4.20;1.67;;;;;;;;;;8432461;28;20048;-83
2022/05/19 11:18:28;;;;;;;6.05;2.00;;;;;;;;;;8444695;28;20446;-88
2022/05/19 11:22:37;;;;;;;5.63;2.50;;;;;;;;;;8453094;28;20112;-87
2022/05/19 11:26:47;;;;;;;6.40;1.60;;;;;;;;;;8454441;28;20040;-87
2022/05/19 11:30:55;;;;;;;3.80;1.73;;;;;;;;;;8463719;28;20040;-88
2022/05/19 11:35:14;;;;;;;4.25;1.77;;;;;;;;;;8464377;28;20062;-87
2022/05/19 11:39:27;;;;;;;5.20;1.67;;;;;;;;;;8463304;28;20040;-89
2022/05/19 11:43:35;;;;;;;4.55;1.80;;;;;;;;;;8464602;28;20464;-87
2022/05/19 11:56:37;;;;;;;4.68;1.92;;;;;;;;;;8453148;28;20488;-89
2022/05/19 12:00:55;;;;;;;3.63;1.85;;;;;;;;;;8447891;28;20093;-88
2022/05/19 12:05:09;;;;;;;3.90;1.63;;;;;;;;;;8461776;28;20046;-88
2022/05/19 12:09:25;;;;;;;4.13;1.90;;;;;;;;;;8458815;28;20059;-88
2022/05/19 12:13:34;;;;;;;4.93;2.03;;;;;;;;;;8460081;28;20039;-88
2022/05/19 12:17:42;;;;;;;4.78;1.80;;;;;;;;;;8459534;28;20042;-88
2022/05/19 12:21:54;;;;;;;5.40;2.08;;;;;;;;;;8456066;28;20075;-88
2022/05/19 12:26:00;;;;;;;5.90;1.67;;;;;;;;;;8463273;28;20043;-88
2022/05/19 12:31:56;;;;;;;6.63;2.20;;;;;;;;;;8459843;28;20483;-87
2022/05/19 12:34:32;;;;;;;4.75;1.83;;;;;;;;;;8462363;28;20051;-88
2022/05/19 12:38:37;;;;;;;4.78;2.28;;;;;;;;;;8463201;28;20164;-87
2022/05/19 12:42:42;;;;;;;5.35;1.70;;;;;;;;;;8463427;28;20067;-87
2022/05/19 12:46:47;;;;;;;4.28;1.90;;;;;;;;;;8463505;28;20519;-86
2022/05/19 12:50:52;;;;;;;5.60;1.80;;;;;;;;;;8467828;28;20075;-87
2022/05/19 12:55:32;;;;;;;3.25;1.90;;;;;;;;;;8470009;28;20067;-89
2022/05/19 12:59:45;;;;;;;2.70;1.73;;;;;;;;;;8469599;28;20040;-87
2022/05/19 13:03:54;;;;;;;4.13;2.00;;;;;;;;;;8469873;28;20040;-87
2022/05/19 13:08:03;;;;;;;5.80;2.13;;;;;;;;;;8469360;28;20059;-87
2022/05/19 13:12:12;;;;;;;4.30;1.73;;;;;;;;;;8469490;28;20092;-89
2022/05/19 13:16:19;;;;;;;4.55;2.25;;;;;;;;;;8469433;28;20044;-87
2022/05/19 13:20:27;;;;;;;4.15;1.70;;;;;;;;;;8468982;28;20051;-89
2022/05/19 13:24:35;;;;;;;4.63;1.85;;;;;;;;;;8468558;28;20063;-88
2022/05/19 13:33:10;;;;;;;5.20;2.00;;;;;;;;;;8463987;28;20118;-89
2022/05/19 13:37:28;;;;;;;3.13;1.48;;;;;;;;;;8458903;28;20048;-88
2022/05/19 13:41:32;;;;;;;3.85;1.95;;;;;;;;;;8463346;28;20051;-88
2022/05/19 13:45:42;;;;;;;2.72;1.70;;;;;;;;;;8463693;28;20043;-88
2022/05/19 13:49:48;;;;;;;3.72;1.88;;;;;;;;;;8463546;28;20491;-88
2022/05/19 13:53:56;;;;;;;3.47;1.70;;;;;;;;;;8463611;28;20051;-88
2022/05/19 13:57:59;;;;;;;4.97;2.33;;;;;;;;;;8463227;28;20158;-88
2022/05/19 14:02:07;;;;;;;5.50;1.77;;;;;;;;;;8462930;28;20474;-88
2022/05/19 14:06:12;;;;;;;4.95;2.10;;;;;;;;;;8464329;28;20499;-87
2022/05/19 14:10:22;;;;;;;8.82;2.30;;;;;;;;;;8463980;28;20043;-88
2022/05/19 14:14:25;;;;;;;5.65;1.95;;;;;;;;;;8463801;28;20093;-88
2022/05/19 14:18:36;;;;;;;4.90;2.20;;;;;;;;;;8462454;28;20463;-88
2022/05/19 14:22:46;;;;;;;6.32;2.00;;;;;;;;;;8462380;28;20047;-89
2022/05/19 14:26:54;;;;;;;;;;;;;;;;;;8462761;28;20059;-86
2022/05/19 14:30:59;;;;;;;3.83;2.08;;;;;;;;;;8462208;28;19965;-86
2022/05/19 14:35:18;;;;;;;4.00;2.10;;;;;;;;;;8461901;28;20193;-88
2022/05/19 14:39:26;;;;;;;5.95;2.22;;;;;;;;;;8461568;28;20051;-88
2022/05/19 14:43:42;;;;;;;6.97;2.28;;;;;;;;;;8461792;28;20058;-87
2022/05/19 14:47:49;;;;;;;3.50;2.15;;;;;;;;;;8443505;28;20589;-88
2022/05/19 14:51:54;;;;;;;6.85;2.50;;;;;;;;;;8461427;28;20047;-86
2022/05/19 14:56:03;;;;;;;5.32;2.40;;;;;;;;;;8460954;28;20108;-87
2022/05/19 15:00:14;;;;;;;5.07;2.30;;;;;;;;;;8461317;28;20055;-87
2022/05/19 15:04:17;;;;;;;4.90;2.10;;;;;;;;;;8461048;28;20132;-89
2022/05/19 15:08:20;;;;;;;5.25;2.45;;;;;;;;;;8460149;28;20043;-88
2022/05/19 15:12:24;;;;;;;11.00;2.45;;;;;;;;;;8463406;28;20044;-87
2022/05/19 15:16:28;;;;;;;5.70;2.30;;;;;;;;;;8464137;28;20050;-87
2022/05/19 15:20:34;;;;;;;5.57;2.28;;;;;;;;;;8465331;28;20577;-87
2022/05/19 15:24:38;;;;;;;6.15;2.95;;;;;;;;;;8458914;28;20052;-87
2022/05/19 15:28:43;;;;;;;4.60;2.33;;;;;;;;;;8458160;28;20043;-86
2022/05/19 15:32:48;;;;;;;5.93;2.25;;;;;;;;;;8464976;28;20051;-87
2022/05/19 15:36:51;;;;;;;7.88;2.65;;;;;;;;;;8464543;28;20093;-87
2022/05/19 15:40:55;;;;;;;4.80;2.10;;;;;;;;;;8464623;28;20039;-86
2022/05/19 15:44:58;;;;;;;3.70;2.00;;;;;;;;;;8464426;28;20050;-86
2022/05/19 15:49:04;;;;;;;5.18;2.30;;;;;;;;;;8464517;28;20050;-86
2022/05/19 15:53:09;;;;;;;6.45;2.40;;;;;;;;;;8448926;28;20044;-87
2022/05/19 15:57:13;;;;;;;6.63;2.58;;;;;;;;;;8465080;28;20051;-86
2022/05/19 16:01:16;;;;;;;8.02;2.50;;;;;;;;;;8464843;28;20047;-87
2022/05/19 16:05:21;;;;;;;5.45;2.50;;;;;;;;;;8464549;28;20043;-86
2022/05/19 16:09:25;;;;;;;15.70;2.67;;;;;;;;;;8464348;28;20544;-87
2022/05/19 16:13:37;;;;;;;5.20;2.20;;;;;;;;;;8464525;28;20054;-87
2022/05/19 16:17:46;;;;;;;6.22;2.55;;;;;;;;;;8426936;28;20047;-89
2022/05/19 16:21:56;;;;;;;5.32;2.30;;;;;;;;;;8457993;28;20064;-89
2022/05/19 16:26:04;;;;;;;6.20;2.42;;;;;;;;;;8451995;28;20044;-90
2022/05/19 16:30:15;;;;;;;7.10;2.35;;;;;;;;;;8453957;28;20036;-90
2022/05/19 16:34:26;;;;;;;7.13;2.67;;;;;;;;;;8456988;28;20043;-88
2022/05/19 16:38:32;;;;;;;9.50;2.60;;;;;;;;;;8451923;28;20467;-89
2022/05/19 16:42:39;;;;;;;3.33;2.20;;;;;;;;;;8452314;28;20585;-90
2022/05/19 16:51:21;;;;;;;5.75;2.40;;;;;;;;;;8452278;28;20488;-88
2022/05/19 16:59:47;;;;;;;7.72;2.50;;;;;;;;;;8455967;28;20479;-88
2022/05/19 17:03:54;;;;;;;4.82;2.40;;;;;;;;;;8458359;28;20047;-88
2022/05/19 17:08:00;;;;;;;8.48;2.30;;;;;;;;;;8459009;28;20450;-88
2022/05/19 17:12:06;;;;;;;7.07;2.33;;;;;;;;;;8457981;28;20051;-89
2022/05/19 17:16:09;;;;;;;11.43;2.28;;;;;;;;;;8457463;28;20051;-88
2022/05/19 17:20:13;;;;;;;7.25;2.40;;;;;;;;;;8455901;28;20051;-88
2022/05/19 17:24:16;;;;;;;5.57;2.03;;;;;;;;;;8456689;28;20089;-88
2022/05/19 17:28:21;;;;;;;7.70;2.42;;;;;;;;;;8457504;28;20048;-88
2022/05/19 17:32:24;;;;;;;7.97;2.50;;;;;;;;;;8458025;28;20414;-88
2022/05/19 17:36:28;;;;;;;10.20;2.30;;;;;;;;;;8459572;28;20100;-87
2022/05/19 17:40:30;;;;;;;5.13;2.10;;;;;;;;;;8463804;28;20055;-87
2022/05/19 17:44:36;;;;;;;8.48;2.40;;;;;;;;;;8463451;28;20630;-89
2022/05/19 17:48:39;;;;;;;12.95;2.40;;;;;;;;;;8463594;28;20044;-88
2022/05/19 17:52:42;;;;;;;4.25;2.15;;;;;;;;;;8463263;28;20046;-88
2022/05/19 17:56:45;;;;;;;21.95;2.78;;;;;;;;;;8463562;28;20107;-88
2022/05/19 18:00:49;;;;;;;8.30;2.15;;;;;;;;;;8463141;28;20403;-89
2022/05/19 18:04:52;;;;;;;6.88;2.30;;;;;;;;;;8463160;28;20043;-88
2022/05/19 18:08:55;;;;;;;4.25;2.85;;;;;;;;;;8462787;28;20119;-90
2022/05/19 18:12:59;;;;;;;5.57;2.47;;;;;;;;;;8456182;28;20051;-87
2022/05/19 18:21:24;;;;;;;8.00;2.17;;;;;;;;;;8462976;28;20039;-88
2022/05/19 18:25:29;;;;;;;9.20;2.60;;;;;;;;;;8460882;28;20049;-88
2022/05/19 18:29:34;;;;;;;10.23;2.50;;;;;;;;;;8456175;28;20044;-87
2022/05/19 18:33:38;;;;;;;11.95;2.67;;;;;;;;;;8465385;28;20475;-87
2022/05/19 18:37:42;;;;;;;9.25;3.13;;;;;;;;;;8438033;28;21304;-89
2022/05/19 18:46:06;;;;;;;9.20;3.15;;;;;;;;;;8461963;28;20040;-90
2022/05/19 18:50:13;;;;;;;10.85;3.40;;;;;;;;;;8462251;28;20043;-89
2022/05/19 18:54:17;;;;;;;11.48;3.85;;;;;;;;;;8466871;28;20051;-89
2022/05/19 18:58:24;;;;;;;19.63;9.38;;;;;;;;;;8466606;28;20047;-88
2022/05/19 19:02:36;;;;;;;8.13;3.50;;;;;;;;;;8464636;28;20054;-88
2022/05/19 19:06:46;;;;;;;11.40;3.20;;;;;;;;;;8457287;28;20039;-89
2022/05/19 19:10:53;;;;;;;7.13;3.70;;;;;;;;;;8447374;28;20046;-89
2022/05/19 19:15:16;;;;;;;10.23;3.60;;;;;;;;;;8465594;28;20039;-88
2022/05/19 19:19:22;;;;;;;14.10;3.90;;;;;;;;;;8445500;28;20048;-87
2022/05/19 19:23:33;;;;;;;10.52;3.60;;;;;;;;;;8463827;28;20063;-89
2022/05/19 19:27:54;;;;;;;9.90;3.80;;;;;;;;;;8461620;28;20047;-89
2022/05/19 19:32:11;;;;;;;7.93;3.97;;;;;;;;;;8460899;28;20463;-89
2022/05/19 19:36:15;;;;;;;7.38;3.40;;;;;;;;;;8450574;28;20563;-88
2022/05/19 19:40:23;;;;;;;7.35;3.38;;;;;;;;;;8446081;28;20402;-87
2022/05/19 19:44:27;;;;;;;7.78;3.15;;;;;;;;;;8463696;28;20054;-87
2022/05/19 19:48:30;;;;;;;7.82;3.42;;;;;;;;;;8463540;28;20054;-88
2022/05/19 19:52:34;;;;;;;7.03;3.13;;;;;;;;;;8442979;28;20404;-88
2022/05/19 19:56:39;;;;;;;7.57;3.42;;;;;;;;;;8462841;28;20047;-88
2022/05/19 20:00:54;;;;;;;6.90;3.65;;;;;;;;;;8458182;28;20043;-89
2022/05/19 20:05:01;;;;;;;10.07;4.30;;;;;;;;;;8461664;28;20039;-88
2022/05/19 20:09:07;;;;;;;9.63;3.28;;;;;;;;;;8463701;28;20047;-88
2022/05/19 20:13:24;;;;;;;6.72;3.40;;;;;;;;;;8463819;28;20074;-89
2022/05/19 20:17:30;;;;;;;8.23;4.43;;;;;;;;;;8463913;28;20130;-87
2022/05/19 20:21:37;;;;;;;11.55;4.60;;;;;;;;;;8463200;28;20062;-87
2022/05/19 20:25:47;;;;;;;10.60;4.70;;;;;;;;;;8463692;28;20052;-89
2022/05/19 20:29:55;;;;;;;9.05;4.25;;;;;;;;;;8463533;28;20535;-87
2022/05/19 20:33:59;;;;;;;12.75;4.60;;;;;;;;;;8463655;28;20050;-88
2022/05/19 20:38:02;;;;;;;10.65;4.80;;;;;;;;;;8463348;28;20044;-88
2022/05/19 20:42:06;;;;;;;11.52;4.50;;;;;;;;;;8463296;28;20495;-86
2022/05/19 20:46:12;;;;;;;11.10;4.65;;;;;;;;;;8463264;28;20445;-87
2022/05/19 20:50:18;;;;;;;11.15;5.28;;;;;;;;;;8463237;28;20071;-88
2022/05/19 20:54:27;;;;;;;12.25;4.80;;;;;;;;;;8463246;28;20118;-88
2022/05/19 20:58:31;;;;;;;12.40;4.95;;;;;;;;;;8444418;28;20044;-86
2022/05/19 21:02:40;;;;;;;9.65;5.18;;;;;;;;;;8462954;28;20046;-88
2022/05/19 21:06:44;;;;;;;11.43;5.15;;;;;;;;;;8463030;28;20403;-88
2022/05/19 21:10:51;;;;;;;16.35;5.35;;;;;;;;;;8463843;28;20126;-88
2022/05/19 21:14:54;;;;;;;9.20;5.30;;;;;;;;;;8458772;28;20122;-87
2022/05/19 21:19:03;;;;;;;11.02;5.20;;;;;;;;;;8469049;28;20036;-87
2022/05/19 21:25:51;;;;;;;8.90;4.85;;;;;;;;;;8468299;28;20063;-87
2022/05/19 21:27:30;;;;;;;14.23;6.05;;;;;;;;;;8469168;28;20460;-87
2022/05/19 21:31:32;;;;;;;13.50;5.70;;;;;;;;;;8468922;28;20051;-88
2022/05/19 21:35:37;;;;;;;14.52;6.40;;;;;;;;;;8468751;28;20048;-87
2022/05/19 21:39:40;;;;;;;12.25;5.85;;;;;;;;;;8468577;28;20044;-87
2022/05/19 21:43:45;;;;;;;9.85;5.68;;;;;;;;;;8468504;28;20044;-86
2022/05/19 21:47:49;;;;;;;11.45;5.68;;;;;;;;;;8468352;28;20054;-86
2022/05/19 21:56:13;;;;;;;13.30;5.53;;;;;;;;;;8462180;28;20047;-87
2022/05/19 22:00:40;;;;;;;10.15;5.40;;;;;;;;;;8461289;28;20047;-87
2022/05/19 22:04:53;;;;;;;;;;;;;;;;;;;;;
2022/05/19 22:09:17;;;;;;;10.40;5.00;;;;;;;;;;8409018;28;20086;-87
2022/05/19 22:13:19;;;;;;;11.95;5.60;;;;;;;;;;8467608;28;20548;-87
2022/05/19 22:17:23;;;;;;;8.55;4.93;;;;;;;;;;8467404;28;20053;-87
2022/05/19 22:21:26;;;;;;;9.55;5.40;;;;;;;;;;8466386;28;20071;-87
2022/05/19 22:25:30;;;;;;;12.15;5.78;;;;;;;;;;8467055;28;20096;-87
2022/05/19 22:29:33;;;;;;;10.70;6.18;;;;;;;;;;8467365;28;20118;-86
2022/05/19 22:33:37;;;;;;;11.10;5.32;;;;;;;;;;8466839;28;20071;-87
2022/05/19 22:37:40;;;;;;;12.20;5.47;;;;;;;;;;8466646;28;20040;-86
2022/05/19 22:41:45;;;;;;;10.73;5.25;;;;;;;;;;8466550;28;20050;-86
2022/05/19 22:45:48;;;;;;;13.48;5.15;;;;;;;;;;8466452;28;20118;-86
2022/05/19 22:49:52;;;;;;;10.52;5.30;;;;;;;;;;8466308;28;20051;-86
2022/05/19 22:53:55;;;;;;;11.43;5.22;;;;;;;;;;8466155;28;20162;-86
2022/05/19 22:58:00;;;;;;;9.05;5.30;;;;;;;;;;8461024;28;20040;-86
2022/05/19 23:02:05;;;;;;;12.50;5.15;;;;;;;;;;8465838;28;20051;-87
2022/05/19 23:06:08;;;;;;;11.82;5.25;;;;;;;;;;8465746;28;20048;-87
2022/05/19 23:10:13;;;;;;;10.30;6.07;;;;;;;;;;8465767;28;20039;-87
2022/05/19 23:14:18;;;;;;;12.35;5.15;;;;;;;;;;8465916;28;20076;-87
2022/05/19 23:18:21;;;;;;;12.13;5.68;;;;;;;;;;8465377;28;20044;-87
2022/05/19 23:22:24;;;;;;;12.50;5.53;;;;;;;;;;8465671;28;20105;-87
2022/05/19 23:26:27;;;;;;;11.45;5.25;;;;;;;;;;8466477;28;20098;-87
2022/05/19 23:30:32;;;;;;;13.95;5.30;;;;;;;;;;8464981;28;20043;-86
2022/05/19 23:34:35;;;;;;;10.90;4.75;;;;;;;;;;8464017;28;20130;-86
2022/05/19 23:38:42;;;;;;;10.68;5.50;;;;;;;;;;8464768;28;20134;-86
2022/05/19 23:42:45;;;;;;;8.10;4.35;;;;;;;;;;8458768;28;20406;-86
2022/05/19 23:46:49;;;;;;;12.32;5.13;;;;;;;;;;8463327;28;20055;-88
2022/05/19 23:50:52;;;;;;;10.20;5.03;;;;;;;;;;8457948;28;20047;-87
2022/05/19 23:54:56;;;;;;;13.25;5.00;;;;;;;;;;8458300;28;20066;-87
2022/05/19 23:58:59;;;;;;;11.88;4.82;;;;;;;;;;8454620;28;20404;-87
